首页
METAR-TAF:

METAR-TAF

机场 :

三寶顏機場

三宝颜, 菲律宾

纬度: 06-54N, 经度: 122-04E, 海拔: 5米

当前天气观测

该预报发布于49分钟前的08:00 UTC
风速4节,风向西,在南转西南西转西北之间变化
温度 28°C
湿度 74%
气压 1011 hPa
能见度10公里或以上
少量云层高于1700英尺
散云层高于9000英尺

METAR: RPMZ 170800Z 26004KT 200V290 9999 FEW017 SCT090 28/23 Q1011 RMK A2985

时间: 16:49 (08:49 UTC)

预报

该预报发布于3小时和49分钟前的05:00 UTC
预报有效从17日的 06点(UTC)到 18日的 06点(UTC)
风速6节,风向东转东北
能见度10公里或以上
少量云层高于1700英尺
散云层高于9000英尺
短暂存在
从 17日的 06点(UTC)到 17日的 12点(UTC)
风速8节,风向西转西南
少量云层高于1600英尺, 积雨云.
少量云层高于1700英尺
多云层高于9000英尺

TAF: RPMZ 170500Z 1706/1806 06006KT 9999 FEW017 SCT090 TEMPO 1706/1712 24008KT FEW016CB FEW017 BKN090

超过4000个机场的气象观测和天气预报(METAR&TAF报告)。

可查询的气象台以黄色和红色小点在地图上表示。

将鼠标移到小点上方,可查看气象台名称。

然后点击查看天气观测和预报。

如需切换地图:点击带黑十字的绿色按钮放大地图;点击带横线的绿色按钮缩小地图;或者点击绿色箭头查看邻近地区的地图。


METAR-TAF: